Time;durP1;ratioP1;P1;durP2;ratioP2;P2;SDS_P1;SDS_P2;PMS_P1;PMS_P2;Temp;Humidity;BMP_temperature;BMP_pressure;BME280_temperature;BME280_humidity;BME280_pressure;Samples;Min_cycle;Max_cycle;Signal;HPM_P1;HPM_P2
2021/11/08 00:01:37;;;;;;;11.32;2.70;;;7.40;99.90;;;;;;5017307;28;20025;-87
2021/11/08 00:04:05;;;;;;;13.80;3.88;;;7.60;99.90;;;;;;5017291;28;20394;-86
2021/11/08 00:06:31;;;;;;;11.88;4.57;;;7.70;99.90;;;;;;5016290;28;20500;-87
2021/11/08 00:08:57;;;;;;;17.08;4.60;;;7.70;99.90;;;;;;5017196;28;20482;-86
2021/11/08 00:11:26;;;;;;;9.68;3.58;;;7.70;99.90;;;;;;5017026;28;20025;-87
2021/11/08 00:13:53;;;;;;;15.70;3.90;;;7.80;99.90;;;;;;5017125;28;20033;-87
2021/11/08 00:16:34;;;;;;;9.77;3.13;;;7.70;99.90;;;;;;5017939;28;20511;-87
2021/11/08 00:21:47;;;;;;;9.50;3.15;;;7.70;99.90;;;;;;5034684;28;20045;-87
2021/11/08 00:24:16;;;;;;;14.82;3.70;;;7.70;99.90;;;;;;5034711;28;20035;-87
2021/11/08 00:26:43;;;;;;;13.55;3.22;;;7.70;99.90;;;;;;5016842;28;20030;-87
2021/11/08 00:29:09;;;;;;;7.38;2.88;;;7.60;99.90;;;;;;5016834;28;20091;-86
2021/11/08 00:31:35;;;;;;;15.38;3.75;;;7.60;99.90;;;;;;5016733;28;20032;-87
2021/11/08 00:34:02;;;;;;;7.80;3.03;;;7.60;99.90;;;;;;5016687;28;20100;-87
2021/11/08 00:36:28;;;;;;;11.52;2.95;;;7.60;99.90;;;;;;5034403;28;20029;-87
2021/11/08 00:38:58;;;;;;;11.50;3.30;;;7.60;99.90;;;;;;5016582;28;20393;-87
2021/11/08 00:41:24;;;;;;;12.80;3.95;;;7.70;99.90;;;;;;5016660;28;20025;-87
2021/11/08 00:43:49;;;;;;;8.95;3.42;;;7.60;99.90;;;;;;5016575;28;20026;-87
2021/11/08 00:46:16;;;;;;;9.75;3.22;;;7.50;99.90;;;;;;5016471;28;20035;-87
2021/11/08 00:48:42;;;;;;;7.35;3.50;;;7.50;99.90;;;;;;5016517;28;20032;-87
2021/11/08 00:51:08;;;;;;;16.63;4.55;;;7.60;99.90;;;;;;5016351;28;20401;-87
2021/11/08 00:53:35;;;;;;;15.40;3.47;;;7.60;99.90;;;;;;5016334;28;20029;-87
2021/11/08 00:56:05;;;;;;;11.43;4.25;;;7.70;99.90;;;;;;5016333;28;20032;-87
2021/11/08 00:58:39;;;;;;;11.82;3.78;;;7.70;99.90;;;;;;5016580;28;20071;-87
2021/11/08 01:01:08;;;;;;;10.90;3.28;;;7.70;99.90;;;;;;5016393;28;20029;-87
2021/11/08 01:03:38;;;;;;;11.10;3.35;;;7.70;99.90;;;;;;5016141;28;20029;-86
2021/11/08 01:06:05;;;;;;;9.68;3.53;;;7.70;99.90;;;;;;5033900;28;20017;-87
2021/11/08 01:08:31;;;;;;;8.30;3.10;;;7.70;99.90;;;;;;5016411;28;20034;-87
2021/11/08 01:10:58;;;;;;;10.40;3.35;;;7.60;99.90;;;;;;5016021;28;20033;-86
2021/11/08 01:13:24;;;;;;;12.25;3.45;;;7.60;99.90;;;;;;5016224;28;20038;-87
2021/11/08 01:15:51;;;;;;;15.13;3.30;;;7.60;99.90;;;;;;5015948;28;20028;-87
2021/11/08 01:18:18;;;;;;;11.35;3.70;;;7.50;99.90;;;;;;5015713;28;20018;-87
2021/11/08 01:20:46;;;;;;;12.30;3.85;;;7.40;99.90;;;;;;5015811;28;20049;-87
2021/11/08 01:23:14;;;;;;;12.23;3.55;;;7.50;99.90;;;;;;5016741;28;20025;-86
2021/11/08 01:25:40;;;;;;;9.13;3.30;;;7.40;99.90;;;;;;5017770;28;20029;-86
2021/11/08 01:28:08;;;;;;;8.52;3.00;;;7.40;99.90;;;;;;5017819;28;20116;-87
2021/11/08 01:30:33;;;;;;;8.98;2.90;;;7.40;99.90;;;;;;5033866;28;20060;-87
2021/11/08 01:35:32;;;;;;;10.07;3.10;;;7.20;99.90;;;;;;5033981;28;20022;-87
2021/11/08 01:38:06;;;;;;;10.68;2.92;;;7.30;99.90;;;;;;5016515;28;20029;-87
2021/11/08 01:40:33;;;;;;;13.77;3.08;;;7.30;99.90;;;;;;5015639;28;20026;-86
2021/11/08 01:42:59;;;;;;;10.40;2.65;;;7.20;99.90;;;;;;5015611;28;20120;-86
2021/11/08 01:45:25;;;;;;;8.70;3.50;;;7.20;99.90;;;;;;5015562;28;20543;-87
2021/11/08 01:47:51;;;;;;;9.98;3.33;;;7.20;99.90;;;;;;5015457;28;20037;-87
2021/11/08 01:50:17;;;;;;;13.10;3.92;;;7.10;99.90;;;;;;5033189;28;20056;-87
2021/11/08 01:52:43;;;;;;;13.38;3.30;;;6.90;99.90;;;;;;5015439;28;20017;-86
2021/11/08 01:55:09;;;;;;;9.95;3.50;;;7.00;99.90;;;;;;5015444;28;20592;-87
2021/11/08 01:57:37;;;;;;;9.43;2.88;;;6.90;99.90;;;;;;5015426;28;20083;-87
2021/11/08 02:00:06;;;;;;;11.57;3.10;;;6.90;99.90;;;;;;5015493;28;20029;-87
2021/11/08 02:02:32;;;;;;;10.73;3.03;;;6.90;99.90;;;;;;5033110;28;20120;-86
2021/11/08 02:04:57;;;;;;;9.75;3.33;;;6.90;99.90;;;;;;5015409;28;20405;-86
2021/11/08 02:07:23;;;;;;;9.25;3.15;;;6.90;99.90;;;;;;5015414;28;20120;-87
2021/11/08 02:09:51;;;;;;;10.70;3.30;;;6.90;99.90;;;;;;5033322;28;20036;-86
2021/11/08 02:12:16;;;;;;;20.13;4.95;;;6.90;99.90;;;;;;5033264;28;20038;-86
2021/11/08 02:14:42;;;;;;;10.48;4.03;;;6.80;99.90;;;;;;5015263;28;20040;-86
2021/11/08 02:17:08;;;;;;;11.73;3.92;;;6.80;99.90;;;;;;5015293;28;20485;-86
2021/11/08 02:19:35;;;;;;;10.63;3.90;;;6.70;99.90;;;;;;5015284;28;20064;-87
2021/11/08 02:22:03;;;;;;;18.75;5.93;;;6.80;99.90;;;;;;5015093;28;20107;-86
2021/11/08 02:24:30;;;;;;;27.15;8.68;;;6.70;99.90;;;;;;5016043;28;20053;-86
2021/11/08 02:26:56;;;;;;;30.40;11.80;;;6.60;99.90;;;;;;5032920;28;20381;-86
2021/11/08 02:29:22;;;;;;;30.75;10.35;;;6.50;99.90;;;;;;5017119;28;20021;-87
2021/11/08 02:31:49;;;;;;;14.65;5.78;;;6.40;99.90;;;;;;5018988;28;20041;-86
2021/11/08 02:34:15;;;;;;;13.10;4.32;;;6.30;99.90;;;;;;5018951;28;20108;-87
2021/11/08 02:36:42;;;;;;;13.93;4.20;;;6.30;99.90;;;;;;5036715;28;20125;-86
2021/11/08 02:39:19;;;;;;;15.38;4.55;;;6.30;99.90;;;;;;5036656;28;20034;-86
2021/11/08 02:41:47;;;;;;;12.25;3.67;;;6.10;99.90;;;;;;5018926;28;20374;-86
2021/11/08 02:44:14;;;;;;;12.98;4.43;;;6.00;99.90;;;;;;5018805;28;20461;-86
2021/11/08 02:46:42;;;;;;;10.32;3.90;;;6.10;99.90;;;;;;5018844;28;20374;-86
2021/11/08 02:49:10;;;;;;;16.20;4.38;;;6.10;99.90;;;;;;5018637;28;20036;-86
2021/11/08 02:51:42;;;;;;;11.15;3.40;;;5.90;99.90;;;;;;5018608;28;20504;-86
2021/11/08 02:54:28;;;;;;;9.45;3.53;;;5.80;99.90;;;;;;5018641;28;20026;-87
2021/11/08 02:56:55;;;;;;;8.52;3.08;;;5.70;99.90;;;;;;5018588;28;20094;-86
2021/11/08 02:59:21;;;;;;;13.25;3.35;;;5.80;99.90;;;;;;5018539;28;20496;-86
2021/11/08 03:01:48;;;;;;;11.95;3.28;;;5.80;99.90;;;;;;5018417;28;20489;-86
2021/11/08 03:04:19;;;;;;;9.00;3.67;;;5.70;99.90;;;;;;5019499;28;20480;-86
2021/11/08 03:06:45;;;;;;;10.27;3.85;;;5.60;99.90;;;;;;5036458;28;20022;-86
2021/11/08 03:09:17;;;;;;;6.63;2.90;;;5.50;99.90;;;;;;5018308;28;20030;-86
2021/11/08 03:11:43;;;;;;;12.68;3.80;;;5.50;99.90;;;;;;5018261;28;20033;-86
2021/11/08 03:14:13;;;;;;;12.20;2.55;;;5.40;99.90;;;;;;5018258;28;20038;-86
2021/11/08 03:16:51;;;;;;;11.23;3.28;;;5.40;99.90;;;;;;5017602;28;20432;-86
2021/11/08 03:19:26;;;;;;;6.95;3.03;;;5.40;99.90;;;;;;5018313;28;20021;-86
2021/11/08 03:21:57;;;;;;;;;;;5.70;99.90;;;;;;5018336;28;20509;-86
2021/11/08 03:24:37;;;;;;;8.95;2.60;;;5.70;99.90;;;;;;5018082;28;20360;-86
2021/11/08 03:29:44;;;;;;;6.30;2.60;;;5.50;99.90;;;;;;5035730;28;20431;-86
2021/11/08 03:32:15;;;;;;;9.85;3.17;;;5.30;99.90;;;;;;5017935;28;20021;-86
2021/11/08 03:34:47;;;;;;;13.43;3.28;;;5.20;99.90;;;;;;5035701;28;20100;-86
2021/11/08 03:37:14;;;;;;;9.02;3.47;;;5.10;99.90;;;;;;5019171;28;20028;-87
2021/11/08 03:39:40;;;;;;;8.07;3.10;;;5.10;99.90;;;;;;5018581;28;20029;-86
2021/11/08 03:42:06;;;;;;;9.13;3.10;;;5.40;99.90;;;;;;5018143;28;20022;-86
2021/11/08 03:44:33;;;;;;;7.47;3.38;;;5.40;99.90;;;;;;5018024;28;20022;-86
2021/11/08 03:46:59;;;;;;;8.88;2.92;;;5.60;99.90;;;;;;5017501;28;20022;-86
2021/11/08 03:49:25;;;;;;;9.98;3.00;;;5.70;99.90;;;;;;5017510;28;20021;-86
2021/11/08 03:51:52;;;;;;;9.10;2.80;;;5.90;99.90;;;;;;5017405;28;20128;-86
2021/11/08 03:54:18;;;;;;;7.70;2.88;;;6.00;99.90;;;;;;5017490;28;20021;-86
2021/11/08 03:56:44;;;;;;;7.82;2.35;;;5.80;99.90;;;;;;5017406;28;20021;-86
2021/11/08 03:59:10;;;;;;;10.57;2.88;;;5.90;99.90;;;;;;5017381;28;20025;-86
2021/11/08 04:01:36;;;;;;;9.93;2.65;;;5.90;99.90;;;;;;5035086;28;20366;-86
2021/11/08 04:04:04;;;;;;;8.25;2.58;;;5.80;99.90;;;;;;5017322;28;20025;-86
2021/11/08 04:06:31;;;;;;;6.82;2.60;;;5.60;99.90;;;;;;5017576;28;20071;-86
2021/11/08 04:08:59;;;;;;;10.18;3.10;;;5.70;99.90;;;;;;5017322;28;20052;-86
2021/11/08 04:11:27;;;;;;;10.65;2.95;;;5.60;99.90;;;;;;5017098;28;20029;-86
2021/11/08 04:13:53;;;;;;;5.60;2.72;;;5.50;99.90;;;;;;5017110;28;20029;-86
2021/11/08 04:16:20;;;;;;;9.50;2.50;;;5.40;99.90;;;;;;5017004;28;20539;-86
2021/11/08 04:18:50;;;;;;;10.23;2.60;;;5.60;99.90;;;;;;5017075;28;20497;-86
2021/11/08 04:21:16;;;;;;;7.25;2.42;;;5.30;99.90;;;;;;5016850;28;20045;-86
2021/11/08 04:23:42;;;;;;;8.52;2.55;;;5.30;99.90;;;;;;5016872;28;20481;-86
2021/11/08 04:26:09;;;;;;;5.88;2.60;;;5.40;99.90;;;;;;5016863;28;20079;-86
2021/11/08 04:28:35;;;;;;;7.25;2.13;;;5.40;99.90;;;;;;5016889;28;20033;-86
2021/11/08 04:31:02;;;;;;;11.77;2.90;;;5.40;99.90;;;;;;5016481;28;20021;-86
2021/11/08 04:33:34;;;;;;;18.33;3.20;;;5.70;99.90;;;;;;5034492;28;20041;-86
2021/11/08 05:29:58;;;;;;;5.80;2.58;;;5.50;99.90;;;;;;5012434;28;20046;-86
2021/11/08 05:32:27;;;;;;;10.63;2.90;;;5.40;99.90;;;;;;5015850;28;20029;-86
2021/11/08 05:34:53;;;;;;;8.40;2.97;;;4.50;99.90;;;;;;5015711;28;20103;-86
2021/11/08 05:37:21;;;;;;;7.30;3.20;;;4.30;99.90;;;;;;5015676;28;20497;-86
2021/11/08 05:39:52;;;;;;;10.25;3.67;;;4.60;99.90;;;;;;5015616;28;20026;-86
2021/11/08 05:42:19;;;;;;;7.32;2.83;;;4.70;99.90;;;;;;5015688;28;20407;-86
2021/11/08 05:44:45;;;;;;;6.28;2.97;;;4.80;99.90;;;;;;5033373;28;20028;-86
2021/11/08 05:47:11;;;;;;;10.32;3.63;;;5.00;99.90;;;;;;5019779;28;20120;-86
2021/11/08 05:49:37;;;;;;;8.95;3.00;;;4.80;99.90;;;;;;5020099;28;20068;-85
2021/11/08 05:52:04;;;;;;;12.75;2.92;;;4.70;99.90;;;;;;5016288;28;20029;-86
2021/11/08 05:54:30;;;;;;;4.30;2.30;;;4.60;99.90;;;;;;5015988;28;20026;-86
2021/11/08 06:51:05;;;;;;;8.98;3.10;;;4.80;99.90;;;;;;5036383;28;20033;-86
2021/11/08 06:53:32;;;;;;;10.25;3.38;;;4.90;99.90;;;;;;5018737;28;20560;-85
2021/11/08 06:55:58;;;;;;;7.55;3.58;;;4.90;99.90;;;;;;5036310;28;20021;-86
2021/11/08 06:58:26;;;;;;;10.60;3.78;;;4.90;99.90;;;;;;5018589;28;20026;-85
2021/11/08 07:00:54;;;;;;;9.75;3.45;;;4.90;99.90;;;;;;5018476;28;20032;-86
2021/11/08 07:03:20;;;;;;;13.68;3.47;;;5.00;99.90;;;;;;5018450;28;20029;-85
2021/11/08 07:05:47;;;;;;;14.27;3.67;;;5.00;99.90;;;;;;5018440;28;20033;-85
2021/11/08 07:08:12;;;;;;;10.25;3.55;;;5.00;99.90;;;;;;5018855;28;20120;-85
2021/11/08 07:10:39;;;;;;;10.82;3.28;;;5.30;99.90;;;;;;5018289;28;20124;-87
2021/11/08 07:13:06;;;;;;;17.40;3.85;;;5.40;99.90;;;;;;5018250;28;20030;-86
2021/11/08 07:15:32;;;;;;;13.80;3.75;;;5.40;99.90;;;;;;5017646;28;20026;-86
2021/11/08 07:17:58;;;;;;;14.23;3.60;;;5.20;99.90;;;;;;5018103;28;20025;-86
2021/11/08 07:20:24;;;;;;;9.50;4.30;;;5.10;99.90;;;;;;5017956;28;20398;-86
2021/11/08 07:22:51;;;;;;;9.82;3.60;;;5.10;99.90;;;;;;5018303;28;20033;-86
2021/11/08 07:25:19;;;;;;;7.75;3.72;;;5.10;99.90;;;;;;5035774;28;20025;-86
2021/11/08 07:27:45;;;;;;;13.23;3.75;;;5.20;99.90;;;;;;5018307;28;20025;-86
2021/11/08 07:30:12;;;;;;;7.25;3.17;;;5.30;99.90;;;;;;5017957;28;20036;-86
2021/11/08 07:32:38;;;;;;;10.15;4.07;;;5.10;99.90;;;;;;5017997;28;20026;-86
2021/11/08 07:35:05;;;;;;;9.40;3.50;;;5.30;99.90;;;;;;5035596;28;20385;-86
2021/11/08 07:37:31;;;;;;;9.88;3.60;;;5.50;99.90;;;;;;5035826;28;20052;-85
2021/11/08 07:39:57;;;;;;;11.82;3.30;;;5.40;99.90;;;;;;5017811;28;20022;-86
2021/11/08 07:42:23;;;;;;;9.35;3.40;;;5.70;99.90;;;;;;5035498;28;20470;-86
2021/11/08 07:44:49;;;;;;;13.75;6.22;;;5.70;99.90;;;;;;5017775;28;20037;-86
2021/11/08 07:47:16;;;;;;;7.32;2.75;;;5.80;99.90;;;;;;5017770;28;20025;-87
2021/11/08 07:49:42;;;;;;;9.45;3.05;;;6.00;99.90;;;;;;5017682;28;20102;-87
2021/11/08 07:52:09;;;;;;;12.45;3.40;;;6.20;99.90;;;;;;5018717;28;20030;-87
2021/11/08 07:54:36;;;;;;;12.70;3.90;;;6.20;99.90;;;;;;5019880;28;20021;-86
2021/11/08 07:57:02;;;;;;;9.75;3.70;;;6.20;99.90;;;;;;5018059;28;20031;-86
2021/11/08 07:59:28;;;;;;;8.48;3.72;;;6.30;99.90;;;;;;5017602;28;20437;-87
2021/11/08 08:01:54;;;;;;;8.32;3.83;;;6.30;99.90;;;;;;5017549;28;20056;-86
2021/11/08 08:04:20;;;;;;;9.52;4.00;;;6.40;99.90;;;;;;5017462;28;20090;-87
2021/11/08 08:06:48;;;;;;;10.70;5.80;;;6.30;99.90;;;;;;5017347;28;20025;-86
2021/11/08 08:09:16;;;;;;;14.02;6.50;;;6.30;99.90;;;;;;5017174;28;20029;-87
2021/11/08 08:11:43;;;;;;;11.10;4.47;;;6.60;99.90;;;;;;5017215;28;20026;-87
2021/11/08 08:14:09;;;;;;;9.20;4.10;;;6.60;99.90;;;;;;5034920;28;20460;-88
2021/11/08 08:16:35;;;;;;;9.48;3.78;;;6.90;99.90;;;;;;5034934;28;20022;-87
2021/11/08 08:19:01;;;;;;;9.57;4.25;;;7.00;99.90;;;;;;5017099;28;20026;-87
2021/11/08 08:21:27;;;;;;;8.73;4.38;;;7.30;99.90;;;;;;5016759;28;20053;-87
2021/11/08 08:23:57;;;;;;;12.98;3.50;;;7.60;99.90;;;;;;5016958;28;20032;-88
2021/11/08 08:26:26;;;;;;;5.07;3.20;;;7.60;99.90;;;;;;5015826;28;20029;-88
2021/11/08 08:28:52;;;;;;;8.98;3.20;;;7.70;99.90;;;;;;5034691;28;20156;-88
2021/11/08 08:31:18;;;;;;;8.52;3.05;;;7.60;99.90;;;;;;5034524;28;20068;-88
2021/11/08 08:33:44;;;;;;;4.63;2.97;;;7.30;99.90;;;;;;5016766;28;20032;-88
2021/11/08 08:36:10;;;;;;;6.47;2.97;;;7.30;99.90;;;;;;5034534;28;20101;-88
2021/11/08 08:38:36;;;;;;;9.10;3.10;;;7.80;99.90;;;;;;5016796;28;20511;-89
2021/11/08 08:41:02;;;;;;;10.85;3.40;;;8.10;99.90;;;;;;5016835;28;20025;-89
2021/11/08 08:43:30;;;;;;;11.25;3.08;;;8.30;99.90;;;;;;5016802;28;20061;-89
2021/11/08 08:45:57;;;;;;;5.10;2.63;;;8.40;99.90;;;;;;5017636;28;20026;-88
2021/11/08 08:48:25;;;;;;;7.13;2.97;;;8.30;99.90;;;;;;5016711;28;20036;-88
2021/11/08 08:50:51;;;;;;;10.60;3.42;;;8.30;99.90;;;;;;5016492;28;20032;-88
2021/11/08 08:53:17;;;;;;;6.03;2.80;;;8.30;99.90;;;;;;5016655;28;20021;-88
2021/11/08 08:55:44;;;;;;;5.03;2.72;;;8.40;99.90;;;;;;5016435;28;20070;-89
2021/11/08 08:58:11;;;;;;;7.47;2.67;;;8.50;99.90;;;;;;5016452;28;20469;-88
2021/11/08 09:00:39;;;;;;;7.07;2.88;;;8.70;99.90;;;;;;5016692;28;20026;-89
2021/11/08 09:03:06;;;;;;;5.95;2.83;;;9.00;99.90;;;;;;5034294;28;20021;-88
2021/11/08 09:05:31;;;;;;;5.95;2.70;;;9.30;99.90;;;;;;5016836;28;20025;-88
2021/11/08 09:07:57;;;;;;;9.85;2.95;;;9.30;99.90;;;;;;5016205;28;20032;-88
2021/11/08 09:10:26;;;;;;;5.25;3.05;;;9.20;99.90;;;;;;5016064;28;20402;-87
2021/11/08 09:12:53;;;;;;;9.82;3.22;;;9.40;99.90;;;;;;5016114;28;20041;-89
2021/11/08 09:15:20;;;;;;;8.63;3.22;;;9.50;99.90;;;;;;5016236;28;20029;-87
2021/11/08 09:17:46;;;;;;;8.15;3.10;;;10.00;99.90;;;;;;5016057;28;20029;-88
2021/11/08 09:20:14;;;;;;;6.82;2.90;;;9.90;99.90;;;;;;5033521;28;20144;-87
2021/11/08 09:22:42;;;;;;;9.80;3.05;;;10.00;99.90;;;;;;5033774;28;20481;-88
2021/11/08 09:25:09;;;;;;;9.13;3.05;;;10.50;99.90;;;;;;5015983;28;20026;-88
2021/11/08 09:27:35;;;;;;;9.60;2.72;;;10.70;99.90;;;;;;5033732;28;20026;-90
2021/11/08 09:30:05;;;;;;;6.78;2.67;;;10.80;99.90;;;;;;5015884;28;20469;-88
2021/11/08 09:32:31;;;;;;;7.97;3.03;;;10.80;99.90;;;;;;5015899;28;20020;-88
2021/11/08 09:34:57;;;;;;;11.93;3.40;;;11.20;99.90;;;;;;5015880;28;20395;-88
2021/11/08 09:37:25;;;;;;;10.60;2.70;;;11.10;99.90;;;;;;5015567;28;20105;-88
2021/11/08 09:39:51;;;;;;;8.20;2.60;;;11.10;99.90;;;;;;5015728;28;20029;-88
2021/11/08 09:42:18;;;;;;;16.02;3.03;;;11.30;99.90;;;;;;5015767;28;20113;-87
2021/11/08 09:44:44;;;;;;;8.93;2.70;;;11.70;99.90;;;;;;5015686;28;20080;-88
2021/11/08 09:47:10;;;;;;;10.20;2.90;;;12.10;99.90;;;;;;5015593;28;20031;-87
2021/11/08 09:49:42;;;;;;;10.85;4.40;;;12.00;99.90;;;;;;5015764;28;20029;-87
2021/11/08 09:52:11;;;;;;;13.63;3.95;;;12.20;99.90;;;;;;5027012;28;20125;-88
2021/11/08 09:54:40;;;;;;;17.55;3.80;;;12.10;99.90;;;;;;5039523;28;20075;-86
2021/11/08 09:57:07;;;;;;;12.27;3.35;;;12.10;99.90;;;;;;5023450;28;20049;-87
2021/11/08 09:59:33;;;;;;;15.05;3.60;;;12.30;99.90;;;;;;5016233;28;20021;-86
2021/11/08 10:02:00;;;;;;;13.77;4.05;;;12.40;99.90;;;;;;5015955;28;20080;-88
2021/11/08 10:04:26;;;;;;;18.60;2.80;;;12.60;99.90;;;;;;5015770;28;20108;-84
2021/11/08 10:06:52;;;;;;;23.00;3.63;;;12.90;99.90;;;;;;5015576;28;20370;-87
2021/11/08 10:09:19;;;;;;;15.20;2.88;;;13.10;99.90;;;;;;5015440;28;20025;-87
2021/11/08 10:11:47;;;;;;;12.52;3.47;;;12.90;99.90;;;;;;5033152;28;20017;-87
2021/11/08 10:14:13;;;;;;;16.60;3.20;;;12.80;99.90;;;;;;5015430;28;20389;-87
2021/11/08 10:16:41;;;;;;;13.48;3.08;;;13.00;99.90;;;;;;5015426;28;20489;-87
2021/11/08 10:19:10;;;;;;;13.45;3.17;;;13.30;99.90;;;;;;5016238;28;20021;-84
2021/11/08 10:21:42;;;;;;;21.05;3.83;;;13.50;99.90;;;;;;4995542;28;20052;-87
2021/11/08 10:24:12;;;;;;;23.35;3.65;;;13.50;99.90;;;;;;5013347;28;20029;-88
2021/11/08 10:26:38;;;;;;;13.68;2.80;;;13.50;99.90;;;;;;5012084;28;20022;-88
2021/11/08 10:29:07;;;;;;;16.48;3.28;;;14.10;99.90;;;;;;5012881;28;20026;-87
2021/11/08 10:31:36;;;;;;;18.30;3.33;;;14.30;99.90;;;;;;5012000;28;20022;-87
2021/11/08 10:34:06;;;;;;;17.05;3.15;;;14.30;99.90;;;;;;5011910;28;20450;-87
2021/11/08 10:36:32;;;;;;;18.83;4.97;;;14.40;99.90;;;;;;5011859;28;20394;-87
2021/11/08 10:39:01;;;;;;;16.95;3.67;;;14.60;99.90;;;;;;5011875;28;20022;-87
2021/11/08 10:41:37;;;;;;;14.02;3.83;;;15.20;99.90;;;;;;5011851;28;20034;-87
2021/11/08 10:44:16;;;;;;;16.85;4.18;;;15.80;99.90;;;;;;5012090;28;20084;-87
2021/11/08 10:46:49;;;;;;;13.77;3.78;;;16.20;99.90;;;;;;5011767;28;20386;-85
2021/11/08 10:49:17;;;;;;;19.75;4.38;;;15.60;99.90;;;;;;5011959;28;20490;-87
2021/11/08 10:51:46;;;;;;;13.32;3.53;;;14.60;99.90;;;;;;5015430;28;20561;-85
2021/11/08 10:54:15;;;;;;;19.50;3.85;;;14.90;99.90;;;;;;5015429;28;20025;-88
2021/11/08 10:56:45;;;;;;;14.82;3.50;;;15.30;99.90;;;;;;5015350;28;20022;-88
2021/11/08 10:59:17;;;;;;;17.67;3.50;;;14.80;99.90;;;;;;5015348;28;20030;-87
2021/11/08 11:01:45;;;;;;;18.63;3.53;;;13.50;99.90;;;;;;5015350;28;20022;-87
2021/11/08 11:04:12;;;;;;;19.40;3.63;;;12.40;99.90;;;;;;5015224;28;20041;-87
2021/11/08 11:06:41;;;;;;;14.63;3.30;;;11.60;99.90;;;;;;5016449;28;20030;-87
2021/11/08 11:09:28;;;;;;;12.75;2.97;;;11.20;99.90;;;;;;5015176;28;20505;-87
2021/11/08 11:12:15;;;;;;;15.70;3.05;;;12.10;99.90;;;;;;5014998;28;20097;-87
2021/11/08 11:14:49;;;;;;;20.73;3.88;;;12.20;99.90;;;;;;5015021;28;20022;-87
2021/11/08 11:17:18;;;;;;;15.00;3.50;;;11.50;99.90;;;;;;5015052;28;20100;-87
2021/11/08 11:19:45;;;;;;;14.52;3.33;;;11.00;99.90;;;;;;5014969;28;20026;-87
2021/11/08 11:22:14;;;;;;;21.48;3.80;;;10.70;99.90;;;;;;5014732;28;20053;-87
2021/11/08 11:24:46;;;;;;;14.88;3.97;;;10.60;99.90;;;;;;5014805;28;20022;-87
2021/11/08 11:27:23;;;;;;;19.38;4.40;;;10.80;99.90;;;;;;5016506;28;20018;-88
2021/11/08 11:29:50;;;;;;;14.82;4.50;;;12.70;99.90;;;;;;5014698;28;20069;-88
2021/11/08 11:32:19;;;;;;;17.20;3.80;;;14.20;99.90;;;;;;5014678;28;20034;-88
2021/11/08 11:34:45;;;;;;;14.93;3.50;;;15.00;99.90;;;;;;5014656;28;20037;-88
2021/11/08 11:37:17;;;;;;;17.23;3.78;;;16.00;99.90;;;;;;5014930;28;20053;-88
2021/11/08 11:39:44;;;;;;;13.00;3.10;;;16.90;99.90;;;;;;5014577;28;20025;-85
2021/11/08 11:42:10;;;;;;;15.85;2.90;;;16.80;99.90;;;;;;5014482;28;20030;-87
2021/11/08 11:44:38;;;;;;;16.50;3.10;;;15.90;99.90;;;;;;5014461;28;20030;-85
2021/11/08 11:47:13;;;;;;;18.20;3.70;;;15.60;99.90;;;;;;5014513;28;20406;-88
2021/11/08 11:49:40;;;;;;;18.02;3.53;;;14.20;99.90;;;;;;5016266;28;20026;-88
2021/11/08 11:52:06;;;;;;;16.30;3.63;;;13.40;99.90;;;;;;5030847;28;20025;-88
2021/11/08 11:54:33;;;;;;;11.90;3.45;;;12.70;99.90;;;;;;5025675;28;20407;-87
2021/11/08 11:56:59;;;;;;;22.00;4.03;;;12.10;99.90;;;;;;5015364;28;20026;-85
2021/11/08 11:59:26;;;;;;;14.57;3.42;;;11.50;99.90;;;;;;5015165;28;20389;-88
2021/11/08 12:01:52;;;;;;;13.98;3.60;;;11.50;99.90;;;;;;5014656;28;20022;-88
2021/11/08 12:04:20;;;;;;;17.13;3.47;;;11.10;99.90;;;;;;5016223;28;20462;-87
2021/11/08 12:06:48;;;;;;;16.33;3.28;;;10.90;99.90;;;;;;5014276;28;20026;-87
2021/11/08 12:09:17;;;;;;;13.57;3.42;;;10.50;99.90;;;;;;5014265;28;20508;-87
2021/11/08 12:11:48;;;;;;;13.10;3.42;;;10.30;99.90;;;;;;5014124;28;20029;-87
2021/11/08 12:14:23;;;;;;;16.52;3.92;;;10.10;99.90;;;;;;5015203;28;20040;-87
2021/11/08 12:17:01;;;;;;;14.80;3.25;;;10.00;99.90;;;;;;5014147;28;20108;-87
2021/11/08 12:19:33;;;;;;;12.57;3.63;;;9.80;99.90;;;;;;5014025;28;20022;-87
2021/11/08 12:22:21;;;;;;;19.42;3.33;;;9.80;99.90;;;;;;5014276;28;20061;-87
2021/11/08 12:25:15;;;;;;;16.15;3.42;;;9.60;99.90;;;;;;5014075;28;20029;-87
2021/11/08 12:27:52;;;;;;;18.23;2.92;;;9.60;99.90;;;;;;5005358;28;20037;-87
2021/11/08 12:30:25;;;;;;;16.88;3.30;;;9.70;99.90;;;;;;5013913;28;20033;-87
2021/11/08 12:32:58;;;;;;;13.95;2.90;;;9.80;99.90;;;;;;5013584;28;20026;-87
2021/11/08 12:35:36;;;;;;;15.32;3.33;;;9.90;99.90;;;;;;5013777;28;20033;-88
2021/11/08 12:38:16;;;;;;;13.57;2.80;;;9.90;99.90;;;;;;5013628;28;20363;-88
2021/11/08 12:40:42;;;;;;;18.98;2.70;;;11.00;99.90;;;;;;5014289;28;20433;-88
2021/11/08 12:43:08;;;;;;;16.60;3.00;;;12.30;99.90;;;;;;5014927;28;20038;-88
2021/11/08 12:45:41;;;;;;;16.15;3.42;;;13.80;99.90;;;;;;5013665;28;20029;-88
2021/11/08 12:48:08;;;;;;;14.45;2.58;;;15.30;99.90;;;;;;5014694;28;20038;-89
2021/11/08 12:50:36;;;;;;;13.88;2.70;;;16.90;99.90;;;;;;5014076;28;20026;-88
2021/11/08 12:53:03;;;;;;;15.75;4.03;;;17.20;99.90;;;;;;5015564;28;20097;-88
2021/11/08 12:55:42;;;;;;;11.60;3.03;;;17.60;99.90;;;;;;5014037;28;20029;-88
2021/11/08 12:58:09;;;;;;;11.70;2.65;;;18.30;99.90;;;;;;5014937;28;20090;-88
2021/11/08 13:00:42;;;;;;;13.63;2.58;;;18.80;99.90;;;;;;5015863;28;20490;-89
2021/11/08 13:03:15;;;;;;;10.18;2.30;;;18.90;99.00;;;;;;5013703;28;20033;-88
2021/11/08 13:05:49;;;;;;;12.60;2.53;;;19.10;98.20;;;;;;5013698;28;20045;-85
2021/11/08 13:08:29;;;;;;;10.93;2.50;;;19.10;97.70;;;;;;4998090;28;20037;-85
2021/11/08 13:11:15;;;;;;;14.57;2.60;;;19.40;96.90;;;;;;5013700;28;20030;-86
2021/11/08 13:13:59;;;;;;;8.45;2.55;;;19.90;95.30;;;;;;5014409;28;20014;-86
2021/11/08 13:16:41;;;;;;;9.60;2.53;;;20.00;95.00;;;;;;5013360;28;20072;-86
2021/11/08 13:19:10;;;;;;;9.25;2.20;;;19.90;94.30;;;;;;5013531;28;20022;-87
2021/11/08 13:21:37;;;;;;;8.95;2.53;;;20.60;93.40;;;;;;5012560;28;20050;-86
2021/11/08 13:24:05;;;;;;;10.80;2.58;;;20.60;92.40;;;;;;5015233;28;20113;-86
2021/11/08 13:26:32;;;;;;;11.32;2.63;;;19.20;93.30;;;;;;5013125;28;20029;-86
2021/11/08 13:28:59;;;;;;;9.68;2.50;;;17.90;95.00;;;;;;5012637;28;20454;-86
2021/11/08 13:31:27;;;;;;;11.73;2.70;;;16.90;96.20;;;;;;5012416;28;20093;-88
2021/11/08 13:33:55;;;;;;;10.07;2.35;;;15.60;97.20;;;;;;5012409;28;20076;-88
2021/11/08 13:36:22;;;;;;;12.30;2.45;;;15.30;98.40;;;;;;5012338;28;20026;-87
2021/11/08 13:38:53;;;;;;;10.23;2.15;;;15.40;98.50;;;;;;5013683;28;20033;-87
2021/11/08 13:41:27;;;;;;;12.13;2.47;;;15.50;97.60;;;;;;4996211;28;20030;-87
2021/11/08 13:43:59;;;;;;;10.37;2.60;;;15.80;98.90;;;;;;5014512;28;20486;-87
2021/11/08 13:46:26;;;;;;;8.35;1.80;;;16.40;96.50;;;;;;5015540;28;20280;-87
2021/11/08 13:48:58;;;;;;;17.52;2.55;;;15.50;98.50;;;;;;5012329;28;20029;-87
2021/11/08 13:51:27;;;;;;;10.68;2.50;;;15.20;98.80;;;;;;5014724;28;20025;-87
2021/11/08 13:54:10;;;;;;;11.30;2.70;;;15.60;98.40;;;;;;5013492;28;20026;-87
2021/11/08 13:56:45;;;;;;;9.35;2.10;;;16.70;97.10;;;;;;5020177;28;20117;-85
2021/11/08 13:59:17;;;;;;;9.63;1.85;;;17.50;96.00;;;;;;5026696;28;20026;-87
2021/11/08 14:01:46;;;;;;;8.25;1.95;;;17.10;95.50;;;;;;5016302;28;20158;-88
2021/11/08 14:04:12;;;;;;;9.05;2.13;;;16.60;96.50;;;;;;5013009;28;20033;-87
2021/11/08 14:06:43;;;;;;;15.13;3.22;;;16.60;97.30;;;;;;5012615;28;20030;-87
2021/11/08 14:09:11;;;;;;;12.27;2.55;;;16.80;95.70;;;;;;5012479;28;20170;-87
2021/11/08 14:11:44;;;;;;;13.80;2.58;;;16.20;97.00;;;;;;5012045;28;20117;-87
2021/11/08 14:14:24;;;;;;;13.82;3.05;;;15.60;97.90;;;;;;5013367;28;20018;-87
2021/11/08 14:16:54;;;;;;;11.90;2.47;;;14.50;99.40;;;;;;5012223;28;20033;-87
2021/11/08 14:19:21;;;;;;;13.02;3.40;;;13.80;99.90;;;;;;5012024;28;20084;-87
2021/11/08 14:21:51;;;;;;;9.27;2.55;;;13.20;99.90;;;;;;5011827;28;20498;-87
2021/11/08 14:24:22;;;;;;;13.60;2.55;;;12.90;99.90;;;;;;5012217;28;20033;-87
2021/11/08 14:26:53;;;;;;;17.05;2.60;;;13.10;99.90;;;;;;5016377;28;20037;-87
2021/11/08 14:29:29;;;;;;;16.25;2.25;;;13.20;99.90;;;;;;5016523;28;20034;-86
2021/11/08 14:32:05;;;;;;;5.97;2.13;;;13.40;99.90;;;;;;5016513;28;20029;-87
2021/11/08 14:34:36;;;;;;;6.45;2.05;;;14.60;99.90;;;;;;5015960;28;20022;-87
2021/11/08 14:37:24;;;;;;;10.48;2.35;;;15.30;99.90;;;;;;5017160;28;20033;-87
2021/11/08 14:39:51;;;;;;;14.25;2.97;;;15.40;98.70;;;;;;5016007;28;20478;-86
2021/11/08 14:42:21;;;;;;;9.15;2.25;;;15.70;98.20;;;;;;5016025;28;20026;-87
2021/11/08 14:44:49;;;;;;;9.45;2.15;;;16.20;97.90;;;;;;5016339;28;20513;-88
2021/11/08 14:47:23;;;;;;;7.32;2.13;;;16.70;97.00;;;;;;5016109;28;20105;-87
2021/11/08 14:49:56;;;;;;;9.18;1.92;;;16.70;95.70;;;;;;5015664;28;20102;-86
2021/11/08 14:52:40;;;;;;;7.18;1.60;;;16.50;96.60;;;;;;5015969;28;20125;-87